sensor_id;sensor_type;location;lat;lon;timestamp;P1;durP1;ratioP1;P2;durP2;ratioP2
22849;SDS011;11591;44.792;10.358;2023-04-02T00:05:46;4.10;;;1.40;;
22849;SDS011;11591;44.792;10.358;2023-04-02T00:07:41;8.40;;;1.73;;
22849;SDS011;11591;44.792;10.358;2023-04-02T00:10:45;3.95;;;1.10;;
22849;SDS011;11591;44.792;10.358;2023-04-02T00:15:38;5.25;;;1.58;;
22849;SDS011;11591;44.792;10.358;2023-04-02T00:18:07;5.90;;;1.63;;
22849;SDS011;11591;44.792;10.358;2023-04-02T00:20:39;6.57;;;1.70;;
22849;SDS011;11591;44.792;10.358;2023-04-02T00:23:11;5.88;;;1.52;;
22849;SDS011;11591;44.792;10.358;2023-04-02T00:25:38;5.30;;;1.45;;
22849;SDS011;11591;44.792;10.358;2023-04-02T00:28:14;8.25;;;1.60;;
22849;SDS011;11591;44.792;10.358;2023-04-02T00:30:55;8.23;;;1.48;;
22849;SDS011;11591;44.792;10.358;2023-04-02T00:33:25;9.15;;;1.42;;
22849;SDS011;11591;44.792;10.358;2023-04-02T00:35:54;11.50;;;1.67;;
22849;SDS011;11591;44.792;10.358;2023-04-02T00:38:24;6.85;;;1.70;;
22849;SDS011;11591;44.792;10.358;2023-04-02T00:40:57;5.30;;;1.40;;
22849;SDS011;11591;44.792;10.358;2023-04-02T00:43:27;6.63;;;1.90;;
22849;SDS011;11591;44.792;10.358;2023-04-02T00:45:56;5.68;;;1.60;;
22849;SDS011;11591;44.792;10.358;2023-04-02T00:48:32;5.70;;;1.40;;
22849;SDS011;11591;44.792;10.358;2023-04-02T00:53:45;7.93;;;1.60;;
22849;SDS011;11591;44.792;10.358;2023-04-02T00:56:18;5.18;;;1.25;;
22849;SDS011;11591;44.792;10.358;2023-04-02T00:58:53;5.63;;;1.80;;
22849;SDS011;11591;44.792;10.358;2023-04-02T01:01:25;6.55;;;1.17;;
22849;SDS011;11591;44.792;10.358;2023-04-02T01:03:59;4.55;;;1.33;;
22849;SDS011;11591;44.792;10.358;2023-04-02T01:06:28;7.95;;;1.70;;
22849;SDS011;11591;44.792;10.358;2023-04-02T01:14:19;11.88;;;2.30;;
22849;SDS011;11591;44.792;10.358;2023-04-02T01:17:09;4.13;;;2.10;;
22849;SDS011;11591;44.792;10.358;2023-04-02T01:28:18;6.97;;;2.78;;
22849;SDS011;11591;44.792;10.358;2023-04-02T01:31:00;9.48;;;2.28;;
22849;SDS011;11591;44.792;10.358;2023-04-02T01:33:28;5.85;;;2.55;;
22849;SDS011;11591;44.792;10.358;2023-04-02T01:36:01;9.93;;;2.83;;
22849;SDS011;11591;44.792;10.358;2023-04-02T01:38:39;4.78;;;2.67;;
22849;SDS011;11591;44.792;10.358;2023-04-02T01:41:39;8.55;;;2.80;;
22849;SDS011;11591;44.792;10.358;2023-04-02T01:44:25;10.93;;;3.30;;
22849;SDS011;11591;44.792;10.358;2023-04-02T01:47:14;8.57;;;2.78;;
22849;SDS011;11591;44.792;10.358;2023-04-02T01:49:43;8.40;;;3.38;;
22849;SDS011;11591;44.792;10.358;2023-04-02T01:52:15;8.82;;;3.20;;
22849;SDS011;11591;44.792;10.358;2023-04-02T01:54:44;6.70;;;2.75;;
22849;SDS011;11591;44.792;10.358;2023-04-02T01:57:12;7.47;;;3.20;;
22849;SDS011;11591;44.792;10.358;2023-04-02T01:59:38;7.97;;;3.13;;
22849;SDS011;11591;44.792;10.358;2023-04-02T02:02:07;8.30;;;3.33;;
22849;SDS011;11591;44.792;10.358;2023-04-02T02:04:38;8.10;;;3.42;;
22849;SDS011;11591;44.792;10.358;2023-04-02T02:07:10;11.32;;;3.70;;
22849;SDS011;11591;44.792;10.358;2023-04-02T02:09:46;12.02;;;3.38;;
22849;SDS011;11591;44.792;10.358;2023-04-02T02:12:13;8.05;;;3.35;;
22849;SDS011;11591;44.792;10.358;2023-04-02T02:14:46;11.10;;;3.70;;
22849;SDS011;11591;44.792;10.358;2023-04-02T02:17:16;11.60;;;3.65;;
22849;SDS011;11591;44.792;10.358;2023-04-02T02:19:44;8.07;;;3.20;;
22849;SDS011;11591;44.792;10.358;2023-04-02T02:24:56;7.68;;;3.17;;
22849;SDS011;11591;44.792;10.358;2023-04-02T02:38:41;6.53;;;3.40;;
22849;SDS011;11591;44.792;10.358;2023-04-02T02:44:22;12.52;;;6.40;;
22849;SDS011;11591;44.792;10.358;2023-04-02T02:49:27;17.05;;;7.40;;
22849;SDS011;11591;44.792;10.358;2023-04-02T02:54:55;15.43;;;7.72;;
22849;SDS011;11591;44.792;10.358;2023-04-02T02:57:41;26.48;;;10.27;;
22849;SDS011;11591;44.792;10.358;2023-04-02T03:00:11;23.60;;;12.18;;
22849;SDS011;11591;44.792;10.358;2023-04-02T03:02:40;28.38;;;13.23;;
22849;SDS011;11591;44.792;10.358;2023-04-02T03:05:14;30.48;;;13.73;;
22849;SDS011;11591;44.792;10.358;2023-04-02T03:07:43;27.58;;;12.57;;
22849;SDS011;11591;44.792;10.358;2023-04-02T03:11:11;27.77;;;13.80;;
22849;SDS011;11591;44.792;10.358;2023-04-02T03:18:28;28.17;;;14.63;;
22849;SDS011;11591;44.792;10.358;2023-04-02T03:21:11;36.13;;;15.98;;
22849;SDS011;11591;44.792;10.358;2023-04-02T03:23:50;31.35;;;16.33;;
22849;SDS011;11591;44.792;10.358;2023-04-02T03:26:23;35.72;;;17.42;;
22849;SDS011;11591;44.792;10.358;2023-04-02T03:28:54;33.90;;;17.15;;
22849;SDS011;11591;44.792;10.358;2023-04-02T03:31:35;36.80;;;17.50;;
22849;SDS011;11591;44.792;10.358;2023-04-02T03:34:10;35.35;;;17.55;;
22849;SDS011;11591;44.792;10.358;2023-04-02T03:36:51;39.70;;;17.90;;
22849;SDS011;11591;44.792;10.358;2023-04-02T03:42:06;43.92;;;19.98;;
22849;SDS011;11591;44.792;10.358;2023-04-02T03:45:00;39.88;;;20.67;;
22849;SDS011;11591;44.792;10.358;2023-04-02T03:50:06;38.63;;;19.52;;
22849;SDS011;11591;44.792;10.358;2023-04-02T03:52:45;41.17;;;19.73;;
22849;SDS011;11591;44.792;10.358;2023-04-02T03:55:14;40.83;;;19.20;;
22849;SDS011;11591;44.792;10.358;2023-04-02T04:00:38;45.17;;;20.90;;
22849;SDS011;11591;44.792;10.358;2023-04-02T04:03:17;46.90;;;22.13;;
22849;SDS011;11591;44.792;10.358;2023-04-02T04:06:08;49.78;;;21.90;;
22849;SDS011;11591;44.792;10.358;2023-04-02T04:08:37;42.50;;;22.42;;
22849;SDS011;11591;44.792;10.358;2023-04-02T04:11:18;44.83;;;22.52;;
22849;SDS011;11591;44.792;10.358;2023-04-02T04:13:56;45.80;;;22.55;;
22849;SDS011;11591;44.792;10.358;2023-04-02T04:16:31;42.85;;;22.80;;
22849;SDS011;11591;44.792;10.358;2023-04-02T04:21:47;46.22;;;23.00;;
22849;SDS011;11591;44.792;10.358;2023-04-02T04:24:23;44.42;;;21.48;;
22849;SDS011;11591;44.792;10.358;2023-04-02T04:27:39;48.90;;;22.83;;
22849;SDS011;11591;44.792;10.358;2023-04-02T04:30:02;49.72;;;22.42;;
22849;SDS011;11591;44.792;10.358;2023-04-02T04:32:36;50.22;;;24.65;;
22849;SDS011;11591;44.792;10.358;2023-04-02T04:35:25;54.60;;;21.98;;
22849;SDS011;11591;44.792;10.358;2023-04-02T04:38:05;44.17;;;22.63;;
22849;SDS011;11591;44.792;10.358;2023-04-02T04:40:44;49.53;;;23.95;;
22849;SDS011;11591;44.792;10.358;2023-04-02T04:43:18;46.80;;;22.83;;
22849;SDS011;11591;44.792;10.358;2023-04-02T04:45:53;46.53;;;23.50;;
22849;SDS011;11591;44.792;10.358;2023-04-02T04:51:32;47.88;;;23.92;;
22849;SDS011;11591;44.792;10.358;2023-04-02T04:54:13;48.83;;;24.08;;
22849;SDS011;11591;44.792;10.358;2023-04-02T04:56:54;51.25;;;25.00;;
22849;SDS011;11591;44.792;10.358;2023-04-02T04:59:43;52.25;;;25.02;;
22849;SDS011;11591;44.792;10.358;2023-04-02T05:02:22;57.17;;;25.60;;
22849;SDS011;11591;44.792;10.358;2023-04-02T05:04:53;48.25;;;23.95;;
22849;SDS011;11591;44.792;10.358;2023-04-02T05:07:22;50.63;;;24.60;;
22849;SDS011;11591;44.792;10.358;2023-04-02T05:18:33;50.33;;;23.10;;
22849;SDS011;11591;44.792;10.358;2023-04-02T05:21:12;44.03;;;21.98;;
22849;SDS011;11591;44.792;10.358;2023-04-02T05:23:55;44.78;;;20.08;;
22849;SDS011;11591;44.792;10.358;2023-04-02T05:26:32;42.58;;;18.63;;
22849;SDS011;11591;44.792;10.358;2023-04-02T05:29:09;41.88;;;18.73;;
22849;SDS011;11591;44.792;10.358;2023-04-02T05:31:53;38.75;;;18.88;;
22849;SDS011;11591;44.792;10.358;2023-04-02T05:34:34;39.42;;;20.10;;
22849;SDS011;11591;44.792;10.358;2023-04-02T05:37:03;40.65;;;19.83;;
22849;SDS011;11591;44.792;10.358;2023-04-02T05:39:30;42.92;;;20.60;;
22849;SDS011;11591;44.792;10.358;2023-04-02T05:41:59;46.08;;;21.27;;
22849;SDS011;11591;44.792;10.358;2023-04-02T05:47:42;44.80;;;22.60;;
22849;SDS011;11591;44.792;10.358;2023-04-02T05:50:17;49.38;;;21.83;;
22849;SDS011;11591;44.792;10.358;2023-04-02T05:52:48;47.85;;;23.05;;
22849;SDS011;11591;44.792;10.358;2023-04-02T05:55:25;43.55;;;22.02;;
22849;SDS011;11591;44.792;10.358;2023-04-02T05:57:54;38.75;;;19.92;;
22849;SDS011;11591;44.792;10.358;2023-04-02T06:00:25;40.20;;;20.15;;
22849;SDS011;11591;44.792;10.358;2023-04-02T06:03:18;44.20;;;20.65;;
22849;SDS011;11591;44.792;10.358;2023-04-02T06:09:07;41.15;;;20.50;;
22849;SDS011;11591;44.792;10.358;2023-04-02T06:14:36;52.85;;;24.52;;
22849;SDS011;11591;44.792;10.358;2023-04-02T06:17:03;49.00;;;24.67;;
22849;SDS011;11591;44.792;10.358;2023-04-02T06:19:30;51.72;;;25.15;;
22849;SDS011;11591;44.792;10.358;2023-04-02T06:23:02;53.05;;;25.85;;
22849;SDS011;11591;44.792;10.358;2023-04-02T06:25:04;60.00;;;27.10;;
22849;SDS011;11591;44.792;10.358;2023-04-02T06:27:40;53.10;;;26.52;;
22849;SDS011;11591;44.792;10.358;2023-04-02T06:30:13;66.70;;;29.50;;
22849;SDS011;11591;44.792;10.358;2023-04-02T06:32:46;64.70;;;29.60;;
22849;SDS011;11591;44.792;10.358;2023-04-02T06:35:12;65.80;;;29.63;;
22849;SDS011;11591;44.792;10.358;2023-04-02T06:37:47;68.80;;;31.05;;
22849;SDS011;11591;44.792;10.358;2023-04-02T06:43:06;71.78;;;33.25;;
22849;SDS011;11591;44.792;10.358;2023-04-02T06:45:57;75.80;;;34.88;;
22849;SDS011;11591;44.792;10.358;2023-04-02T06:48:30;78.85;;;35.10;;
22849;SDS011;11591;44.792;10.358;2023-04-02T06:51:04;77.32;;;33.60;;
22849;SDS011;11591;44.792;10.358;2023-04-02T06:53:38;78.95;;;34.50;;
22849;SDS011;11591;44.792;10.358;2023-04-02T06:58:48;85.47;;;32.92;;
22849;SDS011;11591;44.792;10.358;2023-04-02T07:01:16;79.40;;;34.85;;
22849;SDS011;11591;44.792;10.358;2023-04-02T07:03:45;78.00;;;34.95;;
22849;SDS011;11591;44.792;10.358;2023-04-02T07:06:18;74.78;;;34.33;;
22849;SDS011;11591;44.792;10.358;2023-04-02T07:08:47;75.65;;;32.83;;
22849;SDS011;11591;44.792;10.358;2023-04-02T07:11:18;85.13;;;36.13;;
22849;SDS011;11591;44.792;10.358;2023-04-02T07:13:48;69.40;;;33.35;;
22849;SDS011;11591;44.792;10.358;2023-04-02T07:16:17;74.18;;;34.65;;
22849;SDS011;11591;44.792;10.358;2023-04-02T07:18:44;85.10;;;34.83;;
22849;SDS011;11591;44.792;10.358;2023-04-02T07:21:11;76.65;;;34.80;;
22849;SDS011;11591;44.792;10.358;2023-04-02T07:23:37;76.85;;;34.90;;
22849;SDS011;11591;44.792;10.358;2023-04-02T07:26:03;75.10;;;34.85;;
22849;SDS011;11591;44.792;10.358;2023-04-02T07:28:30;79.53;;;35.55;;
22849;SDS011;11591;44.792;10.358;2023-04-02T07:30:56;85.40;;;37.85;;
22849;SDS011;11591;44.792;10.358;2023-04-02T07:33:23;81.95;;;36.90;;
22849;SDS011;11591;44.792;10.358;2023-04-02T07:35:52;75.43;;;35.80;;
22849;SDS011;11591;44.792;10.358;2023-04-02T07:38:19;80.57;;;37.30;;
22849;SDS011;11591;44.792;10.358;2023-04-02T07:40:45;81.13;;;37.47;;
22849;SDS011;11591;44.792;10.358;2023-04-02T07:43:11;89.78;;;38.45;;
22849;SDS011;11591;44.792;10.358;2023-04-02T07:45:37;86.10;;;38.53;;
22849;SDS011;11591;44.792;10.358;2023-04-02T07:48:06;95.95;;;39.35;;
22849;SDS011;11591;44.792;10.358;2023-04-02T07:50:34;78.82;;;36.30;;
22849;SDS011;11591;44.792;10.358;2023-04-02T07:53:01;83.10;;;36.20;;
22849;SDS011;11591;44.792;10.358;2023-04-02T07:55:27;77.72;;;34.58;;
22849;SDS011;11591;44.792;10.358;2023-04-02T07:57:54;88.18;;;37.33;;
22849;SDS011;11591;44.792;10.358;2023-04-02T08:00:21;88.68;;;37.20;;
22849;SDS011;11591;44.792;10.358;2023-04-02T08:02:49;83.30;;;36.47;;
22849;SDS011;11591;44.792;10.358;2023-04-02T08:05:15;81.82;;;37.63;;
22849;SDS011;11591;44.792;10.358;2023-04-02T08:07:42;90.32;;;38.13;;
22849;SDS011;11591;44.792;10.358;2023-04-02T08:10:09;81.00;;;36.28;;
22849;SDS011;11591;44.792;10.358;2023-04-02T08:12:36;84.43;;;37.50;;
22849;SDS011;11591;44.792;10.358;2023-04-02T08:15:02;80.43;;;35.20;;
22849;SDS011;11591;44.792;10.358;2023-04-02T08:17:31;71.70;;;32.50;;
22849;SDS011;11591;44.792;10.358;2023-04-02T08:19:57;72.97;;;33.20;;
22849;SDS011;11591;44.792;10.358;2023-04-02T08:22:27;78.18;;;34.08;;
22849;SDS011;11591;44.792;10.358;2023-04-02T08:24:53;80.55;;;35.58;;
22849;SDS011;11591;44.792;10.358;2023-04-02T08:27:21;71.78;;;33.40;;
22849;SDS011;11591;44.792;10.358;2023-04-02T08:29:50;73.20;;;33.38;;
22849;SDS011;11591;44.792;10.358;2023-04-02T08:32:19;72.63;;;32.58;;
22849;SDS011;11591;44.792;10.358;2023-04-02T08:34:46;75.60;;;33.25;;
22849;SDS011;11591;44.792;10.358;2023-04-02T08:37:11;65.95;;;30.40;;
22849;SDS011;11591;44.792;10.358;2023-04-02T08:39:38;69.28;;;30.63;;
22849;SDS011;11591;44.792;10.358;2023-04-02T08:42:28;67.75;;;30.02;;
22849;SDS011;11591;44.792;10.358;2023-04-02T08:47:47;51.92;;;25.48;;
22849;SDS011;11591;44.792;10.358;2023-04-02T08:50:25;54.17;;;24.60;;
22849;SDS011;11591;44.792;10.358;2023-04-02T08:52:55;51.65;;;23.05;;
22849;SDS011;11591;44.792;10.358;2023-04-02T08:58:43;46.33;;;22.13;;
22849;SDS011;11591;44.792;10.358;2023-04-02T09:04:25;48.75;;;22.58;;
22849;SDS011;11591;44.792;10.358;2023-04-02T09:06:52;46.30;;;22.65;;
22849;SDS011;11591;44.792;10.358;2023-04-02T09:09:20;44.50;;;20.48;;
22849;SDS011;11591;44.792;10.358;2023-04-02T09:11:50;41.80;;;20.75;;
22849;SDS011;11591;44.792;10.358;2023-04-02T09:17:20;50.75;;;22.70;;
22849;SDS011;11591;44.792;10.358;2023-04-02T09:20:01;48.70;;;22.73;;
22849;SDS011;11591;44.792;10.358;2023-04-02T09:22:41;45.63;;;22.00;;
22849;SDS011;11591;44.792;10.358;2023-04-02T09:25:18;54.38;;;25.77;;
22849;SDS011;11591;44.792;10.358;2023-04-02T09:27:49;62.45;;;27.23;;
22849;SDS011;11591;44.792;10.358;2023-04-02T09:30:26;57.92;;;28.67;;
22849;SDS011;11591;44.792;10.358;2023-04-02T09:32:59;60.50;;;27.25;;
22849;SDS011;11591;44.792;10.358;2023-04-02T09:35:28;58.92;;;28.17;;
22849;SDS011;11591;44.792;10.358;2023-04-02T09:43:23;57.13;;;27.20;;
22849;SDS011;11591;44.792;10.358;2023-04-02T09:46:04;57.40;;;28.00;;
22849;SDS011;11591;44.792;10.358;2023-04-02T09:48:37;60.25;;;27.90;;
22849;SDS011;11591;44.792;10.358;2023-04-02T09:51:21;54.33;;;26.15;;
22849;SDS011;11591;44.792;10.358;2023-04-02T09:56:37;51.13;;;23.63;;
22849;SDS011;11591;44.792;10.358;2023-04-02T09:59:17;51.50;;;24.67;;
22849;SDS011;11591;44.792;10.358;2023-04-02T10:01:56;52.72;;;24.65;;
22849;SDS011;11591;44.792;10.358;2023-04-02T10:04:46;56.40;;;25.17;;
22849;SDS011;11591;44.792;10.358;2023-04-02T10:09:59;45.63;;;21.98;;
22849;SDS011;11591;44.792;10.358;2023-04-02T10:12:29;44.85;;;20.77;;
22849;SDS011;11591;44.792;10.358;2023-04-02T10:15:02;44.00;;;19.50;;
22849;SDS011;11591;44.792;10.358;2023-04-02T10:17:29;44.40;;;19.35;;
22849;SDS011;11591;44.792;10.358;2023-04-02T10:20:02;48.45;;;21.10;;
22849;SDS011;11591;44.792;10.358;2023-04-02T10:22:35;42.20;;;21.35;;
22849;SDS011;11591;44.792;10.358;2023-04-02T10:25:04;45.45;;;21.70;;
22849;SDS011;11591;44.792;10.358;2023-04-02T10:27:45;46.40;;;21.52;;
22849;SDS011;11591;44.792;10.358;2023-04-02T10:30:43;37.60;;;18.98;;
22849;SDS011;11591;44.792;10.358;2023-04-02T10:33:19;34.42;;;17.83;;
22849;SDS011;11591;44.792;10.358;2023-04-02T10:35:56;39.13;;;17.90;;
22849;SDS011;11591;44.792;10.358;2023-04-02T10:48:45;28.88;;;15.15;;
22849;SDS011;11591;44.792;10.358;2023-04-02T11:05:43;26.17;;;13.10;;
22849;SDS011;11591;44.792;10.358;2023-04-02T11:11:11;26.15;;;12.55;;
22849;SDS011;11591;44.792;10.358;2023-04-02T11:13:54;21.88;;;11.75;;
22849;SDS011;11591;44.792;10.358;2023-04-02T11:16:27;27.40;;;11.68;;
22849;SDS011;11591;44.792;10.358;2023-04-02T11:21:51;23.88;;;11.82;;
22849;SDS011;11591;44.792;10.358;2023-04-02T11:32:43;18.83;;;9.90;;
22849;SDS011;11591;44.792;10.358;2023-04-02T11:40:50;15.05;;;8.15;;
22849;SDS011;11591;44.792;10.358;2023-04-02T11:45:59;18.63;;;9.82;;
22849;SDS011;11591;44.792;10.358;2023-04-02T11:48:33;20.77;;;10.65;;
22849;SDS011;11591;44.792;10.358;2023-04-02T11:51:46;21.23;;;10.52;;
22849;SDS011;11591;44.792;10.358;2023-04-02T11:53:49;22.20;;;10.20;;
22849;SDS011;11591;44.792;10.358;2023-04-02T11:59:06;7.68;;;4.40;;
22849;SDS011;11591;44.792;10.358;2023-04-02T12:10:03;8.57;;;4.93;;
22849;SDS011;11591;44.792;10.358;2023-04-02T12:12:40;11.68;;;5.53;;
22849;SDS011;11591;44.792;10.358;2023-04-02T12:18:08;12.27;;;4.68;;
22849;SDS011;11591;44.792;10.358;2023-04-02T12:20:45;9.00;;;5.07;;
22849;SDS011;11591;44.792;10.358;2023-04-02T12:23:17;8.93;;;5.22;;
22849;SDS011;11591;44.792;10.358;2023-04-02T12:25:51;10.55;;;5.18;;
22849;SDS011;11591;44.792;10.358;2023-04-02T12:28:30;10.60;;;6.57;;
22849;SDS011;11591;44.792;10.358;2023-04-02T12:31:08;7.22;;;4.88;;
22849;SDS011;11591;44.792;10.358;2023-04-02T12:33:38;8.05;;;5.03;;
22849;SDS011;11591;44.792;10.358;2023-04-02T12:36:06;11.68;;;4.35;;
22849;SDS011;11591;44.792;10.358;2023-04-02T12:38:54;7.53;;;4.38;;
22849;SDS011;11591;44.792;10.358;2023-04-02T12:41:23;5.80;;;3.53;;
22849;SDS011;11591;44.792;10.358;2023-04-02T12:46:43;9.98;;;4.57;;
22849;SDS011;11591;44.792;10.358;2023-04-02T12:49:33;9.98;;;5.60;;
22849;SDS011;11591;44.792;10.358;2023-04-02T12:52:02;8.57;;;4.30;;
22849;SDS011;11591;44.792;10.358;2023-04-02T12:54:32;8.70;;;4.20;;
22849;SDS011;11591;44.792;10.358;2023-04-02T12:59:49;5.75;;;3.17;;
22849;SDS011;11591;44.792;10.358;2023-04-02T13:02:16;6.47;;;3.40;;
22849;SDS011;11591;44.792;10.358;2023-04-02T13:04:46;4.97;;;3.38;;
22849;SDS011;11591;44.792;10.358;2023-04-02T13:07:16;7.63;;;3.72;;
22849;SDS011;11591;44.792;10.358;2023-04-02T13:09:46;7.10;;;3.10;;
22849;SDS011;11591;44.792;10.358;2023-04-02T13:12:59;3.90;;;2.40;;
22849;SDS011;11591;44.792;10.358;2023-04-02T13:15:07;4.38;;;2.55;;
22849;SDS011;11591;44.792;10.358;2023-04-02T13:17:45;3.97;;;2.55;;
22849;SDS011;11591;44.792;10.358;2023-04-02T13:22:59;3.95;;;2.45;;
22849;SDS011;11591;44.792;10.358;2023-04-02T13:25:44;2.58;;;1.92;;
22849;SDS011;11591;44.792;10.358;2023-04-02T13:28:09;2.92;;;1.83;;
22849;SDS011;11591;44.792;10.358;2023-04-02T13:30:35;2.55;;;1.90;;
22849;SDS011;11591;44.792;10.358;2023-04-02T13:33:01;3.90;;;2.08;;
22849;SDS011;11591;44.792;10.358;2023-04-02T13:35:27;4.22;;;2.45;;
22849;SDS011;11591;44.792;10.358;2023-04-02T13:37:52;6.35;;;2.90;;
22849;SDS011;11591;44.792;10.358;2023-04-02T13:40:18;5.65;;;2.88;;
22849;SDS011;11591;44.792;10.358;2023-04-02T13:42:44;3.55;;;2.22;;
22849;SDS011;11591;44.792;10.358;2023-04-02T13:47:49;1.92;;;1.00;;
22849;SDS011;11591;44.792;10.358;2023-04-02T13:50:19;1.38;;;0.95;;
22849;SDS011;11591;44.792;10.358;2023-04-02T13:52:47;1.45;;;1.10;;
22849;SDS011;11591;44.792;10.358;2023-04-02T13:55:15;2.72;;;1.20;;
22849;SDS011;11591;44.792;10.358;2023-04-02T13:57:43;1.98;;;1.40;;
22849;SDS011;11591;44.792;10.358;2023-04-02T14:00:09;4.03;;;1.60;;
22849;SDS011;11591;44.792;10.358;2023-04-02T14:02:38;3.50;;;2.00;;
22849;SDS011;11591;44.792;10.358;2023-04-02T14:07:49;2.30;;;1.20;;
22849;SDS011;11591;44.792;10.358;2023-04-02T14:10:39;2.45;;;1.70;;
22849;SDS011;11591;44.792;10.358;2023-04-02T14:19:03;5.32;;;2.65;;
22849;SDS011;11591;44.792;10.358;2023-04-02T14:30:26;6.18;;;3.10;;
22849;SDS011;11591;44.792;10.358;2023-04-02T14:33:04;6.80;;;3.83;;
22849;SDS011;11591;44.792;10.358;2023-04-02T14:35:42;4.95;;;3.35;;
22849;SDS011;11591;44.792;10.358;2023-04-02T14:40:49;8.13;;;3.67;;
22849;SDS011;11591;44.792;10.358;2023-04-02T14:43:31;6.78;;;4.18;;
22849;SDS011;11591;44.792;10.358;2023-04-02T14:46:17;5.80;;;3.55;;
22849;SDS011;11591;44.792;10.358;2023-04-02T14:51:35;6.95;;;4.10;;
22849;SDS011;11591;44.792;10.358;2023-04-02T14:56:39;12.25;;;4.22;;
22849;SDS011;11591;44.792;10.358;2023-04-02T14:59:17;7.10;;;4.32;;
22849;SDS011;11591;44.792;10.358;2023-04-02T15:01:59;7.35;;;4.32;;
22849;SDS011;11591;44.792;10.358;2023-04-02T15:04:39;6.88;;;4.00;;
22849;SDS011;11591;44.792;10.358;2023-04-02T15:07:27;5.47;;;3.95;;
22849;SDS011;11591;44.792;10.358;2023-04-02T15:12:35;8.90;;;4.90;;
22849;SDS011;11591;44.792;10.358;2023-04-02T15:15:18;6.82;;;4.68;;
22849;SDS011;11591;44.792;10.358;2023-04-02T15:17:57;9.88;;;5.30;;
22849;SDS011;11591;44.792;10.358;2023-04-02T15:20:25;11.23;;;6.28;;
22849;SDS011;11591;44.792;10.358;2023-04-02T15:23:04;11.48;;;7.38;;
22849;SDS011;11591;44.792;10.358;2023-04-02T15:25:53;10.52;;;6.72;;
22849;SDS011;11591;44.792;10.358;2023-04-02T15:28:40;10.75;;;6.47;;
22849;SDS011;11591;44.792;10.358;2023-04-02T15:31:15;11.73;;;5.88;;
22849;SDS011;11591;44.792;10.358;2023-04-02T15:36:21;5.57;;;3.78;;
22849;SDS011;11591;44.792;10.358;2023-04-02T15:44:21;9.43;;;4.65;;
22849;SDS011;11591;44.792;10.358;2023-04-02T15:49:41;7.05;;;4.53;;
22849;SDS011;11591;44.792;10.358;2023-04-02T16:00:23;8.27;;;4.57;;
22849;SDS011;11591;44.792;10.358;2023-04-02T16:11:54;5.93;;;3.10;;
22849;SDS011;11591;44.792;10.358;2023-04-02T16:16:53;4.88;;;3.20;;
22849;SDS011;11591;44.792;10.358;2023-04-02T16:19:26;4.53;;;2.75;;
22849;SDS011;11591;44.792;10.358;2023-04-02T16:24:28;7.10;;;3.30;;
22849;SDS011;11591;44.792;10.358;2023-04-02T16:29:51;5.30;;;3.05;;
22849;SDS011;11591;44.792;10.358;2023-04-02T16:37:47;6.05;;;3.42;;
22849;SDS011;11591;44.792;10.358;2023-04-02T16:51:26;6.32;;;2.90;;
22849;SDS011;11591;44.792;10.358;2023-04-02T16:54:15;4.45;;;2.90;;
22849;SDS011;11591;44.792;10.358;2023-04-02T17:07:51;5.13;;;2.70;;
22849;SDS011;11591;44.792;10.358;2023-04-02T17:18:28;5.05;;;2.55;;
22849;SDS011;11591;44.792;10.358;2023-04-02T17:20:57;5.60;;;2.63;;
22849;SDS011;11591;44.792;10.358;2023-04-02T17:23:28;4.78;;;3.03;;
22849;SDS011;11591;44.792;10.358;2023-04-02T17:25:56;5.70;;;2.88;;
22849;SDS011;11591;44.792;10.358;2023-04-02T17:28:27;5.07;;;2.70;;
22849;SDS011;11591;44.792;10.358;2023-04-02T17:31:01;5.63;;;3.00;;
22849;SDS011;11591;44.792;10.358;2023-04-02T17:33:34;5.88;;;3.10;;
22849;SDS011;11591;44.792;10.358;2023-04-02T17:38:58;6.15;;;3.60;;
22849;SDS011;11591;44.792;10.358;2023-04-02T17:52:23;7.13;;;2.95;;
22849;SDS011;11591;44.792;10.358;2023-04-02T17:55:16;5.97;;;3.55;;
22849;SDS011;11591;44.792;10.358;2023-04-02T17:58:02;5.88;;;2.58;;
22849;SDS011;11591;44.792;10.358;2023-04-02T18:09:28;5.00;;;3.03;;
22849;SDS011;11591;44.792;10.358;2023-04-02T18:12:06;4.93;;;2.88;;
22849;SDS011;11591;44.792;10.358;2023-04-02T18:18:29;6.03;;;2.80;;
22849;SDS011;11591;44.792;10.358;2023-04-02T18:23:35;8.13;;;2.88;;
22849;SDS011;11591;44.792;10.358;2023-04-02T18:48:43;8.32;;;4.07;;
22849;SDS011;11591;44.792;10.358;2023-04-02T18:51:27;6.10;;;3.70;;
22849;SDS011;11591;44.792;10.358;2023-04-02T18:54:01;9.57;;;4.60;;
22849;SDS011;11591;44.792;10.358;2023-04-02T18:56:37;6.38;;;3.63;;
22849;SDS011;11591;44.792;10.358;2023-04-02T18:59:13;6.00;;;3.75;;
22849;SDS011;11591;44.792;10.358;2023-04-02T19:01:56;8.70;;;4.05;;
22849;SDS011;11591;44.792;10.358;2023-04-02T19:04:25;6.85;;;4.10;;
22849;SDS011;11591;44.792;10.358;2023-04-02T19:06:56;6.43;;;4.05;;
22849;SDS011;11591;44.792;10.358;2023-04-02T19:09:41;8.82;;;4.78;;
22849;SDS011;11591;44.792;10.358;2023-04-02T19:12:20;7.07;;;4.47;;
22849;SDS011;11591;44.792;10.358;2023-04-02T19:14:48;13.10;;;4.82;;
22849;SDS011;11591;44.792;10.358;2023-04-02T19:19:45;6.40;;;3.42;;
22849;SDS011;11591;44.792;10.358;2023-04-02T19:44:42;11.23;;;6.20;;
22849;SDS011;11591;44.792;10.358;2023-04-02T19:47:13;16.67;;;7.18;;
22849;SDS011;11591;44.792;10.358;2023-04-02T19:49:41;14.38;;;7.22;;
22849;SDS011;11591;44.792;10.358;2023-04-02T19:52:07;11.30;;;5.97;;
22849;SDS011;11591;44.792;10.358;2023-04-02T19:54:36;11.57;;;6.35;;
22849;SDS011;11591;44.792;10.358;2023-04-02T19:57:02;14.32;;;6.07;;
22849;SDS011;11591;44.792;10.358;2023-04-02T19:59:28;12.88;;;6.03;;
22849;SDS011;11591;44.792;10.358;2023-04-02T20:01:54;13.50;;;6.13;;
22849;SDS011;11591;44.792;10.358;2023-04-02T20:04:20;12.70;;;5.80;;
22849;SDS011;11591;44.792;10.358;2023-04-02T20:06:45;13.35;;;6.25;;
22849;SDS011;11591;44.792;10.358;2023-04-02T20:09:11;15.13;;;6.57;;
22849;SDS011;11591;44.792;10.358;2023-04-02T20:11:37;13.88;;;6.38;;
22849;SDS011;11591;44.792;10.358;2023-04-02T20:14:03;10.23;;;6.25;;
22849;SDS011;11591;44.792;10.358;2023-04-02T20:16:29;10.35;;;5.53;;
22849;SDS011;11591;44.792;10.358;2023-04-02T20:18:57;12.10;;;6.88;;
22849;SDS011;11591;44.792;10.358;2023-04-02T20:21:23;13.32;;;6.50;;
22849;SDS011;11591;44.792;10.358;2023-04-02T20:23:52;10.57;;;5.78;;
22849;SDS011;11591;44.792;10.358;2023-04-02T20:26:18;8.55;;;4.30;;
22849;SDS011;11591;44.792;10.358;2023-04-02T20:28:44;7.82;;;4.18;;
22849;SDS011;11591;44.792;10.358;2023-04-02T20:31:14;7.90;;;4.47;;
22849;SDS011;11591;44.792;10.358;2023-04-02T20:33:41;7.18;;;4.10;;
22849;SDS011;11591;44.792;10.358;2023-04-02T20:36:09;8.68;;;4.15;;
22849;SDS011;11591;44.792;10.358;2023-04-02T20:38:49;6.47;;;4.00;;
22849;SDS011;11591;44.792;10.358;2023-04-02T20:41:16;6.20;;;3.65;;
22849;SDS011;11591;44.792;10.358;2023-04-02T20:43:42;6.18;;;3.33;;
22849;SDS011;11591;44.792;10.358;2023-04-02T20:46:09;6.15;;;3.03;;
22849;SDS011;11591;44.792;10.358;2023-04-02T20:48:36;6.40;;;3.05;;
22849;SDS011;11591;44.792;10.358;2023-04-02T20:51:03;4.75;;;3.00;;
22849;SDS011;11591;44.792;10.358;2023-04-02T20:53:30;8.77;;;4.60;;
22849;SDS011;11591;44.792;10.358;2023-04-02T20:56:08;6.53;;;3.35;;